sensor_id;sensor_type;location;lat;lon;timestamp;pressure;altitude;pressure_sealevel;temperature;humidity
70728;BME280;58314;47.722;17.652;2022-08-04T00:01:07;100487.31;;;18.54;88.53
70728;BME280;58314;47.722;17.652;2022-08-04T00:04:12;100485.38;;;18.33;89.21
70728;BME280;58314;47.722;17.652;2022-08-04T00:07:34;100488.78;;;18.35;88.83
70728;BME280;58314;47.722;17.652;2022-08-04T00:10:43;100486.13;;;18.58;87.23
70728;BME280;58314;47.722;17.652;2022-08-04T00:14:01;100489.66;;;18.58;85.64
70728;BME280;58314;47.722;17.652;2022-08-04T00:17:04;100498.50;;;18.36;87.29
70728;BME280;58314;47.722;17.652;2022-08-04T00:20:08;100499.66;;;18.10;89.83
70728;BME280;58314;47.722;17.652;2022-08-04T00:23:09;100502.56;;;17.82;91.78
70728;BME280;58314;47.722;17.652;2022-08-04T00:26:10;100498.50;;;17.90;91.71
70728;BME280;58314;47.722;17.652;2022-08-04T00:29:11;100496.25;;;18.08;89.69
70728;BME280;58314;47.722;17.652;2022-08-04T00:32:12;100507.41;;;18.01;89.06
70728;BME280;58314;47.722;17.652;2022-08-04T00:35:13;100510.81;;;17.92;90.42
70728;BME280;58314;47.722;17.652;2022-08-04T00:38:16;100510.81;;;17.79;90.93
70728;BME280;58314;47.722;17.652;2022-08-04T00:41:36;100507.41;;;17.77;91.42
70728;BME280;58314;47.722;17.652;2022-08-04T00:48:48;100506.84;;;17.85;90.70
70728;BME280;58314;47.722;17.652;2022-08-04T00:52:27;100514.41;;;17.67;91.99
70728;BME280;58314;47.722;17.652;2022-08-04T00:59:03;100507.47;;;17.64;91.01
70728;BME280;58314;47.722;17.652;2022-08-04T01:02:36;100504.06;;;17.62;92.55
70728;BME280;58314;47.722;17.652;2022-08-04T01:06:33;100503.66;;;17.80;90.59
70728;BME280;58314;47.722;17.652;2022-08-04T01:09:43;100501.94;;;17.79;89.54
70728;BME280;58314;47.722;17.652;2022-08-04T01:16:05;100498.34;;;17.67;90.15
70728;BME280;58314;47.722;17.652;2022-08-04T01:19:58;100493.00;;;17.67;90.96
70728;BME280;58314;47.722;17.652;2022-08-04T01:29:37;100491.19;;;17.43;89.58
70728;BME280;58314;47.722;17.652;2022-08-04T01:32:51;100491.19;;;17.19;90.78
70728;BME280;58314;47.722;17.652;2022-08-04T01:35:55;100499.88;;;17.10;91.47
70728;BME280;58314;47.722;17.652;2022-08-04T01:38:56;100493.53;;;17.11;91.83
70728;BME280;58314;47.722;17.652;2022-08-04T01:41:57;100485.97;;;16.92;88.86
70728;BME280;58314;47.722;17.652;2022-08-04T01:45:03;100479.75;;;17.17;86.89
70728;BME280;58314;47.722;17.652;2022-08-04T01:48:06;100487.81;;;17.28;87.30
70728;BME280;58314;47.722;17.652;2022-08-04T01:51:08;100485.53;;;17.11;89.13
70728;BME280;58314;47.722;17.652;2022-08-04T01:54:10;100485.16;;;16.91;90.15
70728;BME280;58314;47.722;17.652;2022-08-04T01:57:13;100487.16;;;17.01;88.61
70728;BME280;58314;47.722;17.652;2022-08-04T02:00:22;100488.56;;;16.93;89.56
70728;BME280;58314;47.722;17.652;2022-08-04T02:03:23;100488.88;;;17.02;90.80
70728;BME280;58314;47.722;17.652;2022-08-04T02:13:37;100485.88;;;16.93;90.54
70728;BME280;58314;47.722;17.652;2022-08-04T02:16:48;100484.94;;;16.94;91.27
70728;BME280;58314;47.722;17.652;2022-08-04T02:20:11;100484.94;;;16.94;90.73
70728;BME280;58314;47.722;17.652;2022-08-04T02:23:30;100476.38;;;16.89;91.97
70728;BME280;58314;47.722;17.652;2022-08-04T02:26:35;100483.22;;;16.93;91.64
70728;BME280;58314;47.722;17.652;2022-08-04T02:29:58;100484.03;;;17.07;92.28
70728;BME280;58314;47.722;17.652;2022-08-04T02:33:03;100483.88;;;16.84;93.67
70728;BME280;58314;47.722;17.652;2022-08-04T02:36:10;100483.44;;;16.65;95.67
70728;BME280;58314;47.722;17.652;2022-08-04T02:39:12;100481.28;;;16.83;94.07
70728;BME280;58314;47.722;17.652;2022-08-04T02:42:17;100483.94;;;16.83;92.71
70728;BME280;58314;47.722;17.652;2022-08-04T02:45:21;100486.13;;;16.65;93.24
70728;BME280;58314;47.722;17.652;2022-08-04T02:48:25;100484.09;;;16.68;93.31
70728;BME280;58314;47.722;17.652;2022-08-04T02:51:28;100490.91;;;16.72;92.89
70728;BME280;58314;47.722;17.652;2022-08-04T02:54:36;100486.63;;;16.70;92.75
70728;BME280;58314;47.722;17.652;2022-08-04T02:57:38;100482.78;;;16.74;92.57
70728;BME280;58314;47.722;17.652;2022-08-04T03:00:39;100489.72;;;16.76;92.39
70728;BME280;58314;47.722;17.652;2022-08-04T03:33:44;100489.00;;;16.36;94.58
70728;BME280;58314;47.722;17.652;2022-08-04T03:37:20;100494.63;;;16.31;94.05
70728;BME280;58314;47.722;17.652;2022-08-04T03:51:02;100495.38;;;16.21;97.04
70728;BME280;58314;47.722;17.652;2022-08-04T04:01:34;100485.13;;;16.14;96.21
70728;BME280;58314;47.722;17.652;2022-08-04T04:11:46;100497.75;;;16.25;95.93
70728;BME280;58314;47.722;17.652;2022-08-04T04:15:01;100497.22;;;16.46;93.43
70728;BME280;58314;47.722;17.652;2022-08-04T04:18:14;100493.16;;;16.53;93.27
70728;BME280;58314;47.722;17.652;2022-08-04T04:28:10;100500.44;;;16.51;95.07
70728;BME280;58314;47.722;17.652;2022-08-04T04:35:00;100498.63;;;16.51;95.69
70728;BME280;58314;47.722;17.652;2022-08-04T04:50:56;100516.34;;;16.52;96.79
70728;BME280;58314;47.722;17.652;2022-08-04T04:54:07;100527.78;;;16.67;95.90
70728;BME280;58314;47.722;17.652;2022-08-04T04:57:16;100526.06;;;16.92;95.31
70728;BME280;58314;47.722;17.652;2022-08-04T05:00:17;100529.28;;;17.10;95.18
70728;BME280;58314;47.722;17.652;2022-08-04T05:16:40;100528.88;;;17.64;94.09
70728;BME280;58314;47.722;17.652;2022-08-04T05:20:15;100534.28;;;17.76;92.64
70728;BME280;58314;47.722;17.652;2022-08-04T05:23:23;100535.75;;;17.93;92.74
70728;BME280;58314;47.722;17.652;2022-08-04T05:26:29;100538.19;;;17.96;93.31
70728;BME280;58314;47.722;17.652;2022-08-04T05:29:34;100535.81;;;18.04;93.49
70728;BME280;58314;47.722;17.652;2022-08-04T05:32:45;100541.66;;;18.09;93.11
70728;BME280;58314;47.722;17.652;2022-08-04T05:36:04;100537.19;;;18.21;91.10
70728;BME280;58314;47.722;17.652;2022-08-04T05:39:10;100541.47;;;18.35;89.86
70728;BME280;58314;47.722;17.652;2022-08-04T05:42:14;100536.16;;;18.46;88.73
70728;BME280;58314;47.722;17.652;2022-08-04T05:45:15;100539.22;;;18.53;89.03
70728;BME280;58314;47.722;17.652;2022-08-04T05:48:18;100539.72;;;18.58;88.60
70728;BME280;58314;47.722;17.652;2022-08-04T05:51:19;100544.72;;;18.74;89.89
70728;BME280;58314;47.722;17.652;2022-08-04T05:54:21;100554.66;;;18.96;88.29
70728;BME280;58314;47.722;17.652;2022-08-04T05:57:22;100547.09;;;19.01;87.43
70728;BME280;58314;47.722;17.652;2022-08-04T06:00:25;100546.38;;;19.10;83.88
70728;BME280;58314;47.722;17.652;2022-08-04T06:03:30;100556.47;;;19.18;86.54
70728;BME280;58314;47.722;17.652;2022-08-04T06:06:33;100546.59;;;19.30;86.77
70728;BME280;58314;47.722;17.652;2022-08-04T06:09:34;100544.25;;;19.36;85.54
70728;BME280;58314;47.722;17.652;2022-08-04T06:12:48;100544.38;;;19.46;82.10
70728;BME280;58314;47.722;17.652;2022-08-04T06:15:52;100555.31;;;19.66;82.35
70728;BME280;58314;47.722;17.652;2022-08-04T06:18:54;100548.44;;;19.73;82.08
70728;BME280;58314;47.722;17.652;2022-08-04T06:21:57;100551.13;;;19.73;82.84
70728;BME280;58314;47.722;17.652;2022-08-04T06:25:00;100557.97;;;19.88;81.84
70728;BME280;58314;47.722;17.652;2022-08-04T06:28:04;100557.41;;;20.06;80.29
70728;BME280;58314;47.722;17.652;2022-08-04T06:31:07;100556.13;;;20.21;78.44
70728;BME280;58314;47.722;17.652;2022-08-04T06:34:10;100551.13;;;20.38;77.42
70728;BME280;58314;47.722;17.652;2022-08-04T06:37:12;100551.78;;;20.51;75.91
70728;BME280;58314;47.722;17.652;2022-08-04T06:40:16;100557.88;;;20.64;76.26
70728;BME280;58314;47.722;17.652;2022-08-04T06:43:17;100550.97;;;20.72;73.95
70728;BME280;58314;47.722;17.652;2022-08-04T06:46:19;100551.63;;;20.95;71.28
70728;BME280;58314;47.722;17.652;2022-08-04T06:49:21;100554.41;;;21.14;70.81
70728;BME280;58314;47.722;17.652;2022-08-04T06:52:23;100550.34;;;21.20;70.17
70728;BME280;58314;47.722;17.652;2022-08-04T06:55:24;100554.50;;;21.43;69.81
70728;BME280;58314;47.722;17.652;2022-08-04T06:58:26;100550.59;;;21.57;68.42
70728;BME280;58314;47.722;17.652;2022-08-04T07:01:30;100544.56;;;21.85;66.14
70728;BME280;58314;47.722;17.652;2022-08-04T07:04:32;100552.78;;;22.03;66.03
70728;BME280;58314;47.722;17.652;2022-08-04T07:07:33;100554.09;;;22.28;64.21
70728;BME280;58314;47.722;17.652;2022-08-04T07:10:36;100546.56;;;22.41;62.48
70728;BME280;58314;47.722;17.652;2022-08-04T07:13:37;100546.94;;;22.66;62.91
70728;BME280;58314;47.722;17.652;2022-08-04T07:16:39;100544.75;;;22.79;63.16
70728;BME280;58314;47.722;17.652;2022-08-04T07:19:41;100549.06;;;23.00;63.42
70728;BME280;58314;47.722;17.652;2022-08-04T07:22:45;100536.25;;;23.21;62.66
70728;BME280;58314;47.722;17.652;2022-08-04T07:25:56;100543.06;;;23.43;61.01
70728;BME280;58314;47.722;17.652;2022-08-04T07:28:57;100540.56;;;23.60;60.45
70728;BME280;58314;47.722;17.652;2022-08-04T07:31:59;100541.06;;;23.73;60.73
70728;BME280;58314;47.722;17.652;2022-08-04T07:35:01;100536.44;;;23.83;60.38
70728;BME280;58314;47.722;17.652;2022-08-04T07:38:02;100540.31;;;23.99;60.02
70728;BME280;58314;47.722;17.652;2022-08-04T07:41:04;100536.28;;;24.21;58.02
70728;BME280;58314;47.722;17.652;2022-08-04T07:44:06;100538.94;;;24.39;58.43
70728;BME280;58314;47.722;17.652;2022-08-04T07:47:07;100531.16;;;24.54;56.17
70728;BME280;58314;47.722;17.652;2022-08-04T07:50:09;100536.84;;;24.69;56.74
70728;BME280;58314;47.722;17.652;2022-08-04T07:53:12;100533.47;;;24.75;56.06
70728;BME280;58314;47.722;17.652;2022-08-04T07:56:14;100528.31;;;24.90;55.93
70728;BME280;58314;47.722;17.652;2022-08-04T07:59:16;100537.84;;;25.02;55.12
70728;BME280;58314;47.722;17.652;2022-08-04T08:02:18;100531.44;;;25.11;54.16
70728;BME280;58314;47.722;17.652;2022-08-04T08:05:20;100528.22;;;25.42;54.02
70728;BME280;58314;47.722;17.652;2022-08-04T08:08:21;100530.59;;;25.53;53.66
70728;BME280;58314;47.722;17.652;2022-08-04T08:11:21;100527.47;;;25.74;51.75
70728;BME280;58314;47.722;17.652;2022-08-04T08:14:23;100529.66;;;25.87;51.50
70728;BME280;58314;47.722;17.652;2022-08-04T08:17:24;100528.69;;;25.97;52.10
70728;BME280;58314;47.722;17.652;2022-08-04T08:20:29;100526.81;;;26.14;50.61
70728;BME280;58314;47.722;17.652;2022-08-04T08:23:33;100522.91;;;26.24;49.86
70728;BME280;58314;47.722;17.652;2022-08-04T08:26:34;100527.34;;;26.34;49.15
70728;BME280;58314;47.722;17.652;2022-08-04T08:29:36;100524.25;;;26.45;48.41
70728;BME280;58314;47.722;17.652;2022-08-04T08:32:37;100521.72;;;26.60;48.89
70728;BME280;58314;47.722;17.652;2022-08-04T08:35:51;100514.38;;;26.77;47.49
70728;BME280;58314;47.722;17.652;2022-08-04T08:39:02;100521.97;;;26.98;46.53
70728;BME280;58314;47.722;17.652;2022-08-04T08:42:14;100518.06;;;26.92;47.32
70728;BME280;58314;47.722;17.652;2022-08-04T08:48:59;100515.75;;;27.29;46.58
70728;BME280;58314;47.722;17.652;2022-08-04T09:09:05;100513.66;;;28.16;41.70
70728;BME280;58314;47.722;17.652;2022-08-04T09:12:27;100510.88;;;28.25;40.12
70728;BME280;58314;47.722;17.652;2022-08-04T09:18:39;100514.38;;;28.48;39.12
70728;BME280;58314;47.722;17.652;2022-08-04T09:22:02;100511.81;;;28.70;39.75
70728;BME280;58314;47.722;17.652;2022-08-04T09:25:11;100512.66;;;28.85;39.40
70728;BME280;58314;47.722;17.652;2022-08-04T09:28:20;100507.66;;;29.04;39.85
70728;BME280;58314;47.722;17.652;2022-08-04T09:31:29;100502.09;;;29.12;38.25
70728;BME280;58314;47.722;17.652;2022-08-04T09:48:34;100491.59;;;30.03;38.31
70728;BME280;58314;47.722;17.652;2022-08-04T09:54:51;100489.28;;;30.57;35.88
70728;BME280;58314;47.722;17.652;2022-08-04T09:58:06;100487.75;;;30.83;35.97
70728;BME280;58314;47.722;17.652;2022-08-04T10:01:12;100487.28;;;31.01;35.19
70728;BME280;58314;47.722;17.652;2022-08-04T10:04:14;100476.94;;;30.96;36.70
70728;BME280;58314;47.722;17.652;2022-08-04T10:10:35;100478.41;;;31.53;34.48
70728;BME280;58314;47.722;17.652;2022-08-04T10:14:05;100469.63;;;31.85;32.79
70728;BME280;58314;47.722;17.652;2022-08-04T10:17:27;100467.72;;;31.92;33.09
70728;BME280;58314;47.722;17.652;2022-08-04T10:27:06;100453.84;;;31.74;31.50
70728;BME280;58314;47.722;17.652;2022-08-04T10:30:09;100457.78;;;32.78;31.99
70728;BME280;58314;47.722;17.652;2022-08-04T10:33:31;100456.16;;;33.09;31.30
70728;BME280;58314;47.722;17.652;2022-08-04T10:36:57;100454.16;;;33.36;29.14
70728;BME280;58314;47.722;17.652;2022-08-04T10:40:09;100446.34;;;34.22;29.11
70728;BME280;58314;47.722;17.652;2022-08-04T10:43:47;100442.63;;;34.09;28.79
70728;BME280;58314;47.722;17.652;2022-08-04T10:46:53;100436.53;;;34.51;28.46
70728;BME280;58314;47.722;17.652;2022-08-04T10:49:59;100431.31;;;34.86;27.21
70728;BME280;58314;47.722;17.652;2022-08-04T10:53:06;100424.06;;;35.22;28.51
70728;BME280;58314;47.722;17.652;2022-08-04T10:56:28;100422.59;;;35.50;27.53
70728;BME280;58314;47.722;17.652;2022-08-04T11:05:53;100424.59;;;37.37;24.67
70728;BME280;58314;47.722;17.652;2022-08-04T11:08:55;100429.63;;;37.40;23.07
70728;BME280;58314;47.722;17.652;2022-08-04T11:12:08;100425.59;;;36.26;24.06
70728;BME280;58314;47.722;17.652;2022-08-04T11:15:20;100413.78;;;38.76;21.97
70728;BME280;58314;47.722;17.652;2022-08-04T11:22:08;100413.69;;;39.43;22.66
70728;BME280;58314;47.722;17.652;2022-08-04T11:28:38;100410.56;;;38.63;22.23
70728;BME280;58314;47.722;17.652;2022-08-04T11:31:44;100408.19;;;39.80;21.20
70728;BME280;58314;47.722;17.652;2022-08-04T11:34:51;100409.34;;;40.75;20.96
70728;BME280;58314;47.722;17.652;2022-08-04T11:38:19;100395.63;;;40.47;21.00
70728;BME280;58314;47.722;17.652;2022-08-04T11:41:39;100409.63;;;40.78;21.38
70728;BME280;58314;47.722;17.652;2022-08-04T11:45:16;100403.81;;;40.80;21.28
70728;BME280;58314;47.722;17.652;2022-08-04T11:48:20;100402.28;;;40.52;20.77
70728;BME280;58314;47.722;17.652;2022-08-04T11:51:25;100403.00;;;40.26;20.42
70728;BME280;58314;47.722;17.652;2022-08-04T11:54:26;100397.66;;;40.15;21.30
70728;BME280;58314;47.722;17.652;2022-08-04T11:57:28;100386.22;;;40.01;20.14
70728;BME280;58314;47.722;17.652;2022-08-04T12:00:30;100387.84;;;39.64;20.73
70728;BME280;58314;47.722;17.652;2022-08-04T12:03:44;100377.47;;;39.82;20.72
70728;BME280;58314;47.722;17.652;2022-08-04T12:07:05;100365.13;;;40.47;20.26
70728;BME280;58314;47.722;17.652;2022-08-04T12:17:03;100375.09;;;40.48;19.72
70728;BME280;58314;47.722;17.652;2022-08-04T12:20:06;100362.94;;;40.55;20.60
70728;BME280;58314;47.722;17.652;2022-08-04T12:23:42;100363.53;;;40.72;19.49
70728;BME280;58314;47.722;17.652;2022-08-04T12:26:51;100371.69;;;41.05;19.49
70728;BME280;58314;47.722;17.652;2022-08-04T12:30:02;100368.13;;;41.40;19.25
70728;BME280;58314;47.722;17.652;2022-08-04T12:33:19;100348.69;;;41.35;19.20
70728;BME280;58314;47.722;17.652;2022-08-04T12:36:53;100356.44;;;41.12;19.84
70728;BME280;58314;47.722;17.652;2022-08-04T12:40:02;100352.28;;;41.40;18.88
70728;BME280;58314;47.722;17.652;2022-08-04T12:43:17;100353.97;;;41.42;19.38
70728;BME280;58314;47.722;17.652;2022-08-04T12:49:21;100355.16;;;42.52;18.13
70728;BME280;58314;47.722;17.652;2022-08-04T12:52:23;100341.50;;;41.34;19.86
70728;BME280;58314;47.722;17.652;2022-08-04T12:55:27;100340.84;;;41.99;18.43
70728;BME280;58314;47.722;17.652;2022-08-04T12:58:32;100340.53;;;42.76;18.00
70728;BME280;58314;47.722;17.652;2022-08-04T13:01:36;100335.53;;;42.78;17.55
70728;BME280;58314;47.722;17.652;2022-08-04T13:04:41;100339.22;;;41.82;18.50
70728;BME280;58314;47.722;17.652;2022-08-04T13:07:47;100342.66;;;42.39;18.05
70728;BME280;58314;47.722;17.652;2022-08-04T13:10:52;100330.56;;;42.75;19.49
70728;BME280;58314;47.722;17.652;2022-08-04T13:13:56;100333.13;;;41.49;18.61
70728;BME280;58314;47.722;17.652;2022-08-04T13:16:58;100313.25;;;42.78;18.25
70728;BME280;58314;47.722;17.652;2022-08-04T13:20:03;100320.66;;;41.67;18.37
70728;BME280;58314;47.722;17.652;2022-08-04T13:23:11;100320.38;;;41.38;19.83
70728;BME280;58314;47.722;17.652;2022-08-04T13:26:14;100317.78;;;42.08;18.91
70728;BME280;58314;47.722;17.652;2022-08-04T13:29:23;100311.34;;;43.18;17.79
70728;BME280;58314;47.722;17.652;2022-08-04T13:32:28;100300.44;;;42.82;18.42
70728;BME280;58314;47.722;17.652;2022-08-04T13:35:31;100302.72;;;42.75;18.39
70728;BME280;58314;47.722;17.652;2022-08-04T13:38:34;100302.91;;;42.39;18.67
70728;BME280;58314;47.722;17.652;2022-08-04T13:41:37;100292.50;;;43.04;18.15
70728;BME280;58314;47.722;17.652;2022-08-04T13:44:39;100295.22;;;42.70;17.89
70728;BME280;58314;47.722;17.652;2022-08-04T13:47:42;100285.88;;;43.30;17.51
70728;BME280;58314;47.722;17.652;2022-08-04T13:50:45;100284.34;;;42.24;17.40
70728;BME280;58314;47.722;17.652;2022-08-04T13:54:08;100283.03;;;42.66;18.31
70728;BME280;58314;47.722;17.652;2022-08-04T13:57:22;100283.22;;;42.80;17.38
70728;BME280;58314;47.722;17.652;2022-08-04T14:00:47;100277.06;;;42.78;18.04
70728;BME280;58314;47.722;17.652;2022-08-04T14:04:01;100269.06;;;43.11;17.03
70728;BME280;58314;47.722;17.652;2022-08-04T14:07:12;100272.94;;;43.15;17.15
70728;BME280;58314;47.722;17.652;2022-08-04T14:10:17;100273.56;;;42.12;18.03
70728;BME280;58314;47.722;17.652;2022-08-04T14:13:28;100266.19;;;42.42;16.93
70728;BME280;58314;47.722;17.652;2022-08-04T14:16:33;100264.91;;;42.13;18.20
70728;BME280;58314;47.722;17.652;2022-08-04T14:19:47;100263.72;;;42.80;18.15
70728;BME280;58314;47.722;17.652;2022-08-04T14:22:59;100265.66;;;42.79;16.59
70728;BME280;58314;47.722;17.652;2022-08-04T14:26:38;100256.22;;;42.30;16.97
70728;BME280;58314;47.722;17.652;2022-08-04T14:29:38;100254.03;;;43.12;17.11
70728;BME280;58314;47.722;17.652;2022-08-04T14:33:06;100259.72;;;42.96;17.27
70728;BME280;58314;47.722;17.652;2022-08-04T14:36:08;100253.53;;;42.65;16.87
70728;BME280;58314;47.722;17.652;2022-08-04T14:39:12;100257.69;;;42.67;18.73
70728;BME280;58314;47.722;17.652;2022-08-04T14:42:14;100249.41;;;42.97;16.89
70728;BME280;58314;47.722;17.652;2022-08-04T14:45:15;100256.84;;;43.41;18.72
70728;BME280;58314;47.722;17.652;2022-08-04T14:48:16;100254.06;;;43.06;17.85
70728;BME280;58314;47.722;17.652;2022-08-04T14:51:17;100253.03;;;41.87;18.25
70728;BME280;58314;47.722;17.652;2022-08-04T14:54:26;100251.06;;;42.03;18.42
70728;BME280;58314;47.722;17.652;2022-08-04T14:57:27;100247.06;;;42.75;18.73
70728;BME280;58314;47.722;17.652;2022-08-04T15:00:31;100242.28;;;40.52;19.32
70728;BME280;58314;47.722;17.652;2022-08-04T15:03:32;100247.91;;;41.24;19.03
70728;BME280;58314;47.722;17.652;2022-08-04T15:06:34;100238.28;;;42.02;19.14
70728;BME280;58314;47.722;17.652;2022-08-04T15:09:35;100237.41;;;42.62;17.79
70728;BME280;58314;47.722;17.652;2022-08-04T15:12:36;100247.25;;;42.44;18.09
70728;BME280;58314;47.722;17.652;2022-08-04T15:15:41;100242.06;;;41.00;18.84
70728;BME280;58314;47.722;17.652;2022-08-04T15:18:41;100242.69;;;42.13;18.39
70728;BME280;58314;47.722;17.652;2022-08-04T15:21:42;100241.94;;;43.51;18.19
70728;BME280;58314;47.722;17.652;2022-08-04T15:24:46;100236.09;;;42.88;18.12
70728;BME280;58314;47.722;17.652;2022-08-04T15:27:48;100238.41;;;42.37;19.48
70728;BME280;58314;47.722;17.652;2022-08-04T15:30:53;100234.09;;;42.00;20.18
70728;BME280;58314;47.722;17.652;2022-08-04T15:33:54;100232.91;;;42.21;19.00
70728;BME280;58314;47.722;17.652;2022-08-04T15:36:56;100228.53;;;42.00;19.34
70728;BME280;58314;47.722;17.652;2022-08-04T15:40:24;100223.19;;;41.17;19.71
70728;BME280;58314;47.722;17.652;2022-08-04T15:50:05;100217.34;;;43.04;17.40
70728;BME280;58314;47.722;17.652;2022-08-04T15:53:06;100216.66;;;41.84;19.02
70728;BME280;58314;47.722;17.652;2022-08-04T15:59:57;100212.06;;;40.61;22.30
70728;BME280;58314;47.722;17.652;2022-08-04T16:02:59;100205.53;;;39.99;20.75
70728;BME280;58314;47.722;17.652;2022-08-04T16:09:25;100211.78;;;40.47;20.98
70728;BME280;58314;47.722;17.652;2022-08-04T16:12:52;100212.13;;;39.92;20.60
70728;BME280;58314;47.722;17.652;2022-08-04T16:15:57;100207.09;;;39.89;22.77
70728;BME280;58314;47.722;17.652;2022-08-04T16:19:33;100213.34;;;40.22;21.62
70728;BME280;58314;47.722;17.652;2022-08-04T16:22:47;100209.84;;;39.74;23.21
70728;BME280;58314;47.722;17.652;2022-08-04T16:25:50;100215.41;;;38.67;23.80
70728;BME280;58314;47.722;17.652;2022-08-04T16:28:51;100210.03;;;38.11;24.18
70728;BME280;58314;47.722;17.652;2022-08-04T16:35:17;100195.75;;;37.70;23.71
70728;BME280;58314;47.722;17.652;2022-08-04T16:38:18;100207.56;;;35.94;28.15
70728;BME280;58314;47.722;17.652;2022-08-04T16:41:37;100206.88;;;35.51;29.12
70728;BME280;58314;47.722;17.652;2022-08-04T16:44:38;100205.78;;;35.17;29.83
70728;BME280;58314;47.722;17.652;2022-08-04T16:50:53;100199.81;;;34.24;32.52
70728;BME280;58314;47.722;17.652;2022-08-04T16:54:02;100200.41;;;34.07;33.79
70728;BME280;58314;47.722;17.652;2022-08-04T16:57:09;100202.78;;;34.04;33.51
70728;BME280;58314;47.722;17.652;2022-08-04T17:00:10;100211.94;;;33.79;33.66
70728;BME280;58314;47.722;17.652;2022-08-04T17:03:11;100208.16;;;33.80;34.79
70728;BME280;58314;47.722;17.652;2022-08-04T17:06:15;100209.66;;;33.32;35.35
70728;BME280;58314;47.722;17.652;2022-08-04T17:09:18;100215.28;;;32.87;35.98
70728;BME280;58314;47.722;17.652;2022-08-04T17:12:19;100214.22;;;33.20;34.66
70728;BME280;58314;47.722;17.652;2022-08-04T17:15:21;100208.69;;;32.31;36.12
70728;BME280;58314;47.722;17.652;2022-08-04T17:18:30;100216.28;;;32.29;36.45
70728;BME280;58314;47.722;17.652;2022-08-04T17:21:35;100205.03;;;32.37;36.52
70728;BME280;58314;47.722;17.652;2022-08-04T17:24:37;100211.50;;;32.11;37.66
70728;BME280;58314;47.722;17.652;2022-08-04T17:27:42;100211.03;;;31.56;38.14
70728;BME280;58314;47.722;17.652;2022-08-04T17:30:43;100218.38;;;31.62;38.81
70728;BME280;58314;47.722;17.652;2022-08-04T17:33:46;100220.06;;;31.36;40.06
70728;BME280;58314;47.722;17.652;2022-08-04T17:36:47;100211.44;;;30.86;40.38
70728;BME280;58314;47.722;17.652;2022-08-04T17:39:51;100211.03;;;30.89;40.88
70728;BME280;58314;47.722;17.652;2022-08-04T17:43:05;100206.84;;;31.00;41.01
70728;BME280;58314;47.722;17.652;2022-08-04T17:49:20;100212.03;;;30.54;41.53
70728;BME280;58314;47.722;17.652;2022-08-04T17:52:21;100212.84;;;30.48;42.78
70728;BME280;58314;47.722;17.652;2022-08-04T17:55:22;100213.16;;;30.25;43.13
70728;BME280;58314;47.722;17.652;2022-08-04T17:58:23;100207.81;;;29.97;43.09
70728;BME280;58314;47.722;17.652;2022-08-04T18:01:23;100217.19;;;29.81;43.82
70728;BME280;58314;47.722;17.652;2022-08-04T18:07:39;100211.84;;;29.38;44.84
70728;BME280;58314;47.722;17.652;2022-08-04T18:10:42;100221.19;;;29.28;45.75
70728;BME280;58314;47.722;17.652;2022-08-04T18:13:51;100212.41;;;29.05;46.73
70728;BME280;58314;47.722;17.652;2022-08-04T18:16:53;100218.84;;;29.19;45.91
70728;BME280;58314;47.722;17.652;2022-08-04T18:19:53;100223.97;;;28.85;46.70
70728;BME280;58314;47.722;17.652;2022-08-04T18:22:54;100220.53;;;28.77;46.70
70728;BME280;58314;47.722;17.652;2022-08-04T18:25:55;100223.31;;;28.47;47.99
70728;BME280;58314;47.722;17.652;2022-08-04T18:28:55;100226.00;;;28.25;48.31
70728;BME280;58314;47.722;17.652;2022-08-04T18:31:56;100228.16;;;28.30;47.93
70728;BME280;58314;47.722;17.652;2022-08-04T18:34:57;100230.63;;;28.10;47.77
70728;BME280;58314;47.722;17.652;2022-08-04T18:37:57;100230.00;;;27.93;50.19
70728;BME280;58314;47.722;17.652;2022-08-04T18:40:58;100231.84;;;27.77;50.65
70728;BME280;58314;47.722;17.652;2022-08-04T18:43:59;100232.97;;;27.68;51.50
70728;BME280;58314;47.722;17.652;2022-08-04T18:47:00;100228.91;;;27.49;52.91
70728;BME280;58314;47.722;17.652;2022-08-04T18:50:01;100232.69;;;27.48;52.11
70728;BME280;58314;47.722;17.652;2022-08-04T18:53:02;100237.44;;;27.31;52.51
70728;BME280;58314;47.722;17.652;2022-08-04T18:56:06;100243.72;;;27.09;52.48
70728;BME280;58314;47.722;17.652;2022-08-04T18:59:07;100242.38;;;27.04;52.28
70728;BME280;58314;47.722;17.652;2022-08-04T19:02:07;100248.44;;;26.68;53.89
70728;BME280;58314;47.722;17.652;2022-08-04T19:05:08;100251.56;;;26.49;56.34
70728;BME280;58314;47.722;17.652;2022-08-04T19:08:11;100254.78;;;26.53;53.99
70728;BME280;58314;47.722;17.652;2022-08-04T19:11:12;100255.78;;;26.20;54.61
70728;BME280;58314;47.722;17.652;2022-08-04T19:14:13;100255.00;;;26.43;53.47
70728;BME280;58314;47.722;17.652;2022-08-04T19:17:14;100254.56;;;26.54;52.76
70728;BME280;58314;47.722;17.652;2022-08-04T19:20:15;100257.28;;;26.62;52.99
70728;BME280;58314;47.722;17.652;2022-08-04T19:23:16;100259.66;;;26.57;54.03
70728;BME280;58314;47.722;17.652;2022-08-04T19:26:17;100261.66;;;26.32;54.43
70728;BME280;58314;47.722;17.652;2022-08-04T19:29:17;100250.91;;;26.07;55.75
70728;BME280;58314;47.722;17.652;2022-08-04T19:32:18;100269.78;;;26.01;57.33
70728;BME280;58314;47.722;17.652;2022-08-04T19:35:19;100260.25;;;26.05;56.09
70728;BME280;58314;47.722;17.652;2022-08-04T19:38:20;100259.28;;;25.98;56.59
70728;BME280;58314;47.722;17.652;2022-08-04T19:41:21;100261.97;;;25.89;55.70